Time;durP1;ratioP1;P1;durP2;ratioP2;P2;SDS_P1;SDS_P2;PMS_P1;PMS_P2;Temp;Humidity;BMP_temperature;BMP_pressure;BME280_temperature;BME280_humidity;BME280_pressure;Samples;Min_cycle;Max_cycle;Signal;HPM_P1;HPM_P2
2021/01/09 00:01:49;;;;;;;12.60;7.95;;;1.20;96.30;;;;;;5126002;27;27927;-56
2021/01/09 00:04:34;;;;;;;15.07;9.13;;;1.20;96.30;;;;;;5125708;27;27414;-58
2021/01/09 00:07:19;;;;;;;13.65;8.55;;;1.20;96.30;;;;;;5125770;27;27422;-58
2021/01/09 00:10:06;;;;;;;18.95;8.98;;;1.20;96.30;;;;;;5124998;27;27442;-57
2021/01/09 00:12:50;;;;;;;17.35;8.88;;;1.20;96.30;;;;;;5125550;27;27466;-57
2021/01/09 00:15:35;;;;;;;13.50;8.32;;;1.20;96.40;;;;;;5125759;27;27443;-58
2021/01/09 00:18:20;;;;;;;14.18;8.55;;;1.20;96.40;;;;;;5125574;27;27484;-57
2021/01/09 00:21:04;;;;;;;15.88;9.32;;;1.20;96.40;;;;;;5125750;27;27451;-57
2021/01/09 00:23:49;;;;;;;14.27;9.23;;;1.20;96.40;;;;;;5124752;27;27884;-50
2021/01/09 00:26:34;;;;;;;12.55;8.45;;;1.20;96.40;;;;;;5125656;27;27434;-56
2021/01/09 00:29:19;;;;;;;14.43;8.70;;;1.20;96.30;;;;;;5125691;27;27460;-58
2021/01/09 00:32:04;;;;;;;14.55;8.73;;;1.20;96.30;;;;;;5122239;27;27425;-57
2021/01/09 00:34:48;;;;;;;15.02;8.85;;;1.20;96.30;;;;;;5125552;27;27395;-57
2021/01/09 00:37:33;;;;;;;16.13;8.88;;;1.20;96.30;;;;;;5125014;27;27423;-57
2021/01/09 00:40:18;;;;;;;14.85;9.10;;;1.20;96.30;;;;;;5125154;27;27465;-56
2021/01/09 00:43:02;;;;;;;17.50;10.27;;;1.10;96.30;;;;;;5120978;27;27500;-58
2021/01/09 00:45:47;;;;;;;14.57;9.05;;;1.10;96.40;;;;;;5125049;27;27511;-58
2021/01/09 00:48:31;;;;;;;13.85;8.85;;;1.10;96.40;;;;;;5124997;27;27589;-57
2021/01/09 00:51:16;;;;;;;16.85;9.05;;;1.20;96.40;;;;;;5124848;27;27390;-57
2021/01/09 00:54:01;;;;;;;15.82;10.18;;;1.10;96.40;;;;;;5125292;27;27396;-58
2021/01/09 00:56:45;;;;;;;14.95;9.32;;;1.10;96.40;;;;;;5121901;27;27875;-56
2021/01/09 00:59:29;;;;;;;15.50;8.73;;;1.20;96.40;;;;;;5124924;27;27378;-57
2021/01/09 01:02:14;;;;;;;16.77;8.95;;;1.20;96.30;;;;;;5125234;27;27401;-58
2021/01/09 01:04:58;;;;;;;14.23;9.63;;;1.10;96.30;;;;;;5124805;27;27416;-56
2021/01/09 01:07:43;;;;;;;15.70;9.27;;;1.10;96.30;;;;;;5125052;27;27964;-56
2021/01/09 01:10:27;;;;;;;16.42;10.02;;;1.10;96.40;;;;;;5125079;27;27338;-57
2021/01/09 01:13:12;;;;;;;16.27;9.90;;;1.10;96.40;;;;;;5125090;27;27347;-56
2021/01/09 01:15:57;;;;;;;16.25;9.32;;;1.10;96.40;;;;;;5125052;27;27423;-57
2021/01/09 01:18:42;;;;;;;16.73;10.10;;;1.10;96.40;;;;;;5124294;27;27347;-57
2021/01/09 01:21:26;;;;;;;16.65;10.02;;;1.10;96.30;;;;;;5126701;27;27467;-57
2021/01/09 01:24:10;;;;;;;17.73;10.38;;;1.10;96.30;;;;;;5128375;27;27410;-57
2021/01/09 01:26:55;;;;;;;14.57;8.88;;;1.10;96.30;;;;;;5127737;27;27399;-51
2021/01/09 01:29:39;;;;;;;15.43;9.52;;;1.10;96.30;;;;;;5128162;27;27440;-56
2021/01/09 01:32:24;;;;;;;15.73;9.88;;;1.10;96.40;;;;;;5128118;27;27406;-55
2021/01/09 01:35:09;;;;;;;13.18;9.10;;;1.10;96.30;;;;;;5128468;27;27460;-56
2021/01/09 01:37:53;;;;;;;14.57;9.30;;;1.10;96.40;;;;;;5127785;27;27422;-56
2021/01/09 01:40:38;;;;;;;15.98;9.40;;;1.10;96.40;;;;;;5128034;27;27431;-56
2021/01/09 01:43:22;;;;;;;15.48;10.02;;;1.10;96.40;;;;;;5127385;27;27408;-56
2021/01/09 01:46:08;;;;;;;13.65;9.20;;;1.10;96.40;;;;;;5127780;27;27420;-56
2021/01/09 01:48:53;;;;;;;16.67;10.27;;;1.10;96.40;;;;;;5128202;27;27390;-56
2021/01/09 01:51:37;;;;;;;19.70;10.68;;;1.10;96.40;;;;;;5127832;27;27500;-56
2021/01/09 01:54:22;;;;;;;16.75;9.52;;;1.10;96.40;;;;;;5127777;27;27476;-56
2021/01/09 01:57:08;;;;;;;16.40;9.98;;;1.10;96.40;;;;;;5127264;27;27428;-55
2021/01/09 01:59:53;;;;;;;18.10;10.30;;;1.10;96.40;;;;;;5127689;27;27465;-56
2021/01/09 02:02:38;;;;;;;18.92;10.82;;;1.10;96.40;;;;;;5127662;27;27446;-56
2021/01/09 02:05:25;;;;;;;14.57;9.80;;;1.10;96.40;;;;;;5127868;27;27468;-56
2021/01/09 02:08:11;;;;;;;16.20;9.85;;;1.10;96.40;;;;;;5109845;27;27395;-55
2021/01/09 02:10:58;;;;;;;18.38;10.40;;;1.10;96.40;;;;;;5126853;27;27406;-54
2021/01/09 02:13:44;;;;;;;15.63;9.23;;;1.10;96.40;;;;;;5127070;27;27399;-54
2021/01/09 02:16:29;;;;;;;16.80;9.90;;;1.20;96.40;;;;;;5126759;27;27355;-55
2021/01/09 02:19:14;;;;;;;17.38;9.85;;;1.20;96.30;;;;;;5127547;27;27463;-55
2021/01/09 02:21:59;;;;;;;14.50;9.85;;;1.20;96.30;;;;;;5123356;27;27330;-54
2021/01/09 02:24:45;;;;;;;15.63;9.10;;;1.20;96.70;;;;;;5127279;27;27333;-54
2021/01/09 02:27:30;;;;;;;15.20;9.25;;;1.20;96.30;;;;;;5126881;27;27386;-55
2021/01/09 02:30:15;;;;;;;16.38;9.05;;;1.20;96.30;;;;;;5127286;27;27332;-55
2021/01/09 02:33:06;;;;;;;14.70;8.98;;;1.20;96.30;;;;;;5126756;27;27348;-55
2021/01/09 02:35:51;;;;;;;18.25;9.85;;;1.20;96.30;;;;;;5126707;27;27523;-55
2021/01/09 02:38:36;;;;;;;14.82;9.95;;;1.20;96.30;;;;;;5126409;27;27487;-56
2021/01/09 02:41:21;;;;;;;15.68;9.68;;;1.20;96.20;;;;;;5127103;27;27438;-55
2021/01/09 02:44:12;;;;;;;15.88;10.07;;;1.20;96.30;;;;;;5126336;27;27433;-54
2021/01/09 02:46:57;;;;;;;15.73;9.40;;;1.20;96.20;;;;;;5127177;27;27457;-54
2021/01/09 02:49:41;;;;;;;16.00;9.68;;;1.20;96.20;;;;;;5123913;27;27339;-54
2021/01/09 02:52:26;;;;;;;16.02;9.68;;;1.20;96.30;;;;;;5123990;27;27312;-52
2021/01/09 02:55:10;;;;;;;15.52;9.95;;;1.20;96.30;;;;;;5127148;27;27381;-55
2021/01/09 02:57:55;;;;;;;16.75;9.48;;;1.20;96.30;;;;;;5127062;27;27970;-56
2021/01/09 03:00:39;;;;;;;14.93;9.07;;;1.20;96.20;;;;;;5126757;27;27390;-54
2021/01/09 03:03:24;;;;;;;15.55;9.80;;;1.20;96.20;;;;;;5126643;27;27420;-54
2021/01/09 03:06:08;;;;;;;15.90;9.18;;;1.20;96.20;;;;;;5126686;27;27469;-56
2021/01/09 03:08:53;;;;;;;16.42;10.48;;;1.20;96.20;;;;;;5126191;27;27968;-55
2021/01/09 03:11:38;;;;;;;16.45;9.20;;;1.20;96.20;;;;;;5126632;27;27408;-55
2021/01/09 03:14:22;;;;;;;17.95;10.75;;;1.20;96.20;;;;;;5126913;27;27360;-55
2021/01/09 03:17:07;;;;;;;17.23;10.10;;;1.20;96.30;;;;;;5126487;27;27330;-54
2021/01/09 03:19:51;;;;;;;17.13;9.73;;;1.20;96.30;;;;;;5126742;27;27347;-55
2021/01/09 03:22:36;;;;;;;17.65;10.57;;;1.20;96.30;;;;;;5126636;27;27503;-54
2021/01/09 03:25:20;;;;;;;15.98;9.63;;;1.20;96.30;;;;;;5126757;27;27406;-55
2021/01/09 03:28:05;;;;;;;18.10;10.43;;;1.20;96.30;;;;;;5125832;27;27535;-55
2021/01/09 03:30:50;;;;;;;14.95;9.80;;;1.20;96.30;;;;;;5126245;27;27477;-54
2021/01/09 03:33:35;;;;;;;16.60;8.32;;;1.20;96.20;;;;;;5126455;27;27465;-54
2021/01/09 03:36:19;;;;;;;18.02;10.30;;;1.20;96.20;;;;;;5125728;27;27477;-53
2021/01/09 03:39:04;;;;;;;14.68;9.05;;;1.20;96.20;;;;;;5126048;27;27590;-56
2021/01/09 03:41:49;;;;;;;16.70;10.55;;;1.20;96.20;;;;;;5126083;27;27868;-55
2021/01/09 03:44:33;;;;;;;15.10;9.35;;;1.20;96.20;;;;;;5125999;27;27502;-55
2021/01/09 03:47:18;;;;;;;14.80;9.18;;;1.20;96.20;;;;;;5126043;27;27480;-55
2021/01/09 03:50:04;;;;;;;17.98;10.02;;;1.20;96.20;;;;;;5125977;27;27457;-54
2021/01/09 03:52:48;;;;;;;15.45;9.43;;;1.30;96.20;;;;;;5126138;27;27430;-55
2021/01/09 03:55:33;;;;;;;16.88;9.85;;;1.20;96.20;;;;;;5126100;27;27411;-55
2021/01/09 03:58:18;;;;;;;16.42;9.77;;;1.20;96.20;;;;;;5126106;27;27468;-53
2021/01/09 04:01:02;;;;;;;16.65;9.77;;;1.30;96.20;;;;;;5126100;27;27421;-53
2021/01/09 04:03:47;;;;;;;16.13;9.80;;;1.20;96.20;;;;;;5125376;27;27972;-54
2021/01/09 04:06:31;;;;;;;19.08;11.00;;;1.20;96.10;;;;;;5125970;27;27427;-54
2021/01/09 04:09:16;;;;;;;16.05;10.43;;;1.20;96.10;;;;;;5125726;27;27361;-55
2021/01/09 04:12:00;;;;;;;16.98;10.77;;;1.20;96.20;;;;;;5125641;27;27417;-55
2021/01/09 04:14:45;;;;;;;15.77;10.27;;;1.20;96.30;;;;;;5124840;27;27883;-53
2021/01/09 04:17:29;;;;;;;16.17;10.00;;;1.20;96.30;;;;;;5125784;27;27319;-54
2021/01/09 04:20:14;;;;;;;16.00;9.95;;;1.20;96.30;;;;;;5125539;27;27389;-53
2021/01/09 04:22:58;;;;;;;15.63;10.10;;;1.20;96.30;;;;;;5125451;27;27320;-55
2021/01/09 04:25:42;;;;;;;16.35;9.68;;;1.20;96.40;;;;;;5125379;27;27385;-54
2021/01/09 04:28:27;;;;;;;15.80;10.07;;;1.20;96.30;;;;;;5125425;27;27429;-49
2021/01/09 04:31:14;;;;;;;15.60;10.25;;;1.20;96.30;;;;;;5125106;27;27370;-54
2021/01/09 04:33:59;;;;;;;16.77;10.77;;;1.20;96.30;;;;;;5125338;27;27397;-54
2021/01/09 04:36:44;;;;;;;17.05;10.25;;;1.20;96.30;;;;;;5125175;27;27697;-48
2021/01/09 04:39:28;;;;;;;17.00;9.80;;;1.20;96.40;;;;;;5125223;27;27363;-56
2021/01/09 04:42:13;;;;;;;16.63;10.55;;;1.20;96.30;;;;;;5121929;27;27320;-55
2021/01/09 04:44:57;;;;;;;15.55;9.45;;;1.20;96.30;;;;;;5124334;27;27397;-55
2021/01/09 04:47:42;;;;;;;16.02;10.68;;;1.20;96.30;;;;;;5124588;27;27319;-56
2021/01/09 04:50:26;;;;;;;15.35;9.80;;;1.20;96.30;;;;;;5110076;27;27513;-54
2021/01/09 04:53:11;;;;;;;17.02;10.80;;;1.20;96.20;;;;;;5124608;27;27422;-53
2021/01/09 04:55:55;;;;;;;19.20;11.20;;;1.20;96.20;;;;;;5123729;27;27440;-53
2021/01/09 04:58:39;;;;;;;16.70;10.50;;;1.20;96.20;;;;;;5109994;27;27890;-52
2021/01/09 05:01:24;;;;;;;17.27;10.18;;;1.20;96.30;;;;;;5124407;27;27438;-53
2021/01/09 05:04:09;;;;;;;22.48;11.38;;;1.20;96.30;;;;;;5124801;27;27546;-53
2021/01/09 05:06:54;;;;;;;19.10;11.20;;;1.20;96.30;;;;;;5125192;27;27471;-53
2021/01/09 05:09:38;;;;;;;17.35;11.15;;;1.10;96.30;;;;;;5125073;27;27402;-54
2021/01/09 05:12:22;;;;;;;15.85;10.82;;;1.10;96.30;;;;;;5124761;27;27494;-54
2021/01/09 05:15:07;;;;;;;22.05;11.95;;;1.20;96.40;;;;;;5124386;27;27484;-51
2021/01/09 05:17:52;;;;;;;17.70;10.90;;;1.10;96.40;;;;;;5124704;27;27545;-54
2021/01/09 05:20:37;;;;;;;19.00;11.60;;;1.10;96.40;;;;;;5123881;27;28012;-54
2021/01/09 05:23:21;;;;;;;16.98;10.65;;;1.10;96.40;;;;;;5124501;27;27429;-54
2021/01/09 05:26:05;;;;;;;16.88;10.23;;;1.10;96.40;;;;;;5124835;27;27394;-54
2021/01/09 05:28:51;;;;;;;19.63;12.35;;;1.10;96.40;;;;;;5109342;27;27356;-48
2021/01/09 05:31:36;;;;;;;17.88;11.23;;;1.10;96.40;;;;;;5124508;27;27867;-52
2021/01/09 05:34:20;;;;;;;19.85;11.57;;;1.10;96.30;;;;;;5124223;27;27441;-47
2021/01/09 05:37:17;;;;;;;19.45;10.85;;;1.10;96.20;;;;;;5124380;27;27381;-53
2021/01/09 05:40:03;;;;;;;17.65;10.63;;;1.10;96.30;;;;;;5120713;27;27441;-49
2021/01/09 05:42:50;;;;;;;17.85;11.23;;;1.10;96.30;;;;;;5123688;27;27543;-55
2021/01/09 05:45:36;;;;;;;18.85;11.90;;;1.10;96.40;;;;;;5109411;27;27615;-54
2021/01/09 05:48:21;;;;;;;19.02;11.75;;;1.10;96.40;;;;;;5123922;27;27453;-55
2021/01/09 05:51:06;;;;;;;19.55;12.20;;;1.10;96.50;;;;;;5124586;27;27445;-54
2021/01/09 05:53:51;;;;;;;19.42;12.65;;;1.10;96.50;;;;;;5124534;27;27884;-54
2021/01/09 05:56:41;;;;;;;20.30;12.35;;;1.10;96.50;;;;;;5120876;27;27465;-54
2021/01/09 05:59:27;;;;;;;18.48;11.18;;;1.10;96.50;;;;;;5124626;27;27360;-55
2021/01/09 06:02:11;;;;;;;17.58;11.57;;;1.10;96.50;;;;;;5124285;27;27416;-55
2021/01/09 06:04:59;;;;;;;20.15;11.88;;;1.10;96.50;;;;;;5123819;27;27412;-55
2021/01/09 06:07:43;;;;;;;18.73;11.07;;;1.00;96.50;;;;;;5125287;27;27468;-54
2021/01/09 06:10:27;;;;;;;20.45;12.23;;;1.10;96.40;;;;;;5098290;27;27492;-53
2021/01/09 06:13:12;;;;;;;17.73;10.77;;;1.10;96.50;;;;;;5112626;27;27531;-52
2021/01/09 06:16:05;;;;;;;18.45;11.35;;;1.00;96.50;;;;;;5127793;27;27511;-55
2021/01/09 06:18:50;;;;;;;20.75;11.38;;;1.00;96.60;;;;;;5127702;27;27371;-52
2021/01/09 06:21:36;;;;;;;20.30;12.40;;;1.00;96.60;;;;;;5127162;27;27540;-54
2021/01/09 06:24:23;;;;;;;20.48;11.63;;;1.10;96.60;;;;;;5127508;27;27412;-53
2021/01/09 06:27:09;;;;;;;18.35;11.85;;;1.10;96.60;;;;;;5127589;27;27474;-52
2021/01/09 06:29:55;;;;;;;18.75;12.60;;;1.10;96.60;;;;;;5112261;27;27481;-52
2021/01/09 06:32:40;;;;;;;20.60;11.27;;;1.10;96.60;;;;;;5126849;27;27468;-51
2021/01/09 06:35:25;;;;;;;19.90;12.45;;;1.10;96.60;;;;;;5127140;27;27383;-53
2021/01/09 06:38:09;;;;;;;18.42;12.05;;;1.10;96.60;;;;;;5126022;27;27472;-53
2021/01/09 06:40:53;;;;;;;19.05;11.75;;;1.10;96.60;;;;;;5126292;27;27488;-52
2021/01/09 06:43:40;;;;;;;19.63;12.18;;;1.10;96.60;;;;;;5126516;27;27407;-52
2021/01/09 06:46:32;;;;;;;17.35;10.23;;;1.10;96.50;;;;;;5126263;27;27415;-52
2021/01/09 06:49:18;;;;;;;17.63;12.10;;;1.10;96.50;;;;;;5126784;27;27853;-53
2021/01/09 06:52:02;;;;;;;18.33;11.13;;;1.10;96.50;;;;;;5126844;27;27491;-51
2021/01/09 06:54:47;;;;;;;17.23;10.40;;;1.10;96.40;;;;;;5126910;27;27454;-54
2021/01/09 06:57:35;;;;;;;17.85;11.23;;;1.10;96.40;;;;;;5126817;27;27423;-54
2021/01/09 07:00:20;;;;;;;19.52;11.88;;;1.10;96.40;;;;;;5126260;27;27418;-51
2021/01/09 07:03:22;;;;;;;20.73;11.80;;;1.20;96.40;;;;;;5125874;27;27417;-48
2021/01/09 07:06:07;;;;;;;19.48;12.13;;;1.10;96.40;;;;;;5126746;27;27531;-53
2021/01/09 07:08:51;;;;;;;19.17;11.50;;;1.20;96.30;;;;;;5122593;27;27389;-53
2021/01/09 07:11:36;;;;;;;17.38;11.02;;;1.10;96.30;;;;;;5111670;27;27382;-51
2021/01/09 07:14:21;;;;;;;19.33;11.52;;;1.10;96.30;;;;;;5125887;27;27347;-54
2021/01/09 07:17:12;;;;;;;20.83;12.23;;;1.10;96.30;;;;;;5126827;27;27377;-51
2021/01/09 07:19:57;;;;;;;17.58;11.40;;;1.20;96.30;;;;;;5122773;27;27394;-51
2021/01/09 07:22:45;;;;;;;16.13;11.00;;;1.10;96.30;;;;;;5125919;27;28075;-50
2021/01/09 07:25:37;;;;;;;19.05;11.75;;;1.10;96.30;;;;;;5126371;27;27437;-55
2021/01/09 07:28:22;;;;;;;17.55;11.35;;;1.10;96.30;;;;;;5126647;27;27397;-54
2021/01/09 07:31:10;;;;;;;19.13;12.18;;;1.10;96.20;;;;;;5126704;27;27393;-54
2021/01/09 07:33:56;;;;;;;17.77;10.80;;;1.10;96.20;;;;;;5123145;27;27328;-54
2021/01/09 07:36:40;;;;;;;18.35;11.82;;;1.20;96.30;;;;;;5125950;27;27397;-47
2021/01/09 07:39:25;;;;;;;17.83;11.77;;;1.20;96.30;;;;;;5110958;27;27399;-54
2021/01/09 07:42:24;;;;;;;18.88;11.98;;;1.10;96.30;;;;;;5110525;27;27381;-54
2021/01/09 07:45:11;;;;;;;20.27;11.40;;;1.20;96.30;;;;;;5125987;27;27468;-53
2021/01/09 07:47:56;;;;;;;18.30;11.50;;;1.20;96.30;;;;;;5126188;27;27495;-55
2021/01/09 07:50:43;;;;;;;20.65;12.60;;;1.20;96.30;;;;;;5125603;27;27434;-54
2021/01/09 07:53:28;;;;;;;20.15;12.02;;;1.20;96.30;;;;;;5126242;27;27350;-54
2021/01/09 07:56:36;;;;;;;20.55;12.25;;;1.20;96.30;;;;;;5126132;27;27328;-53
2021/01/09 07:59:20;;;;;;;20.08;12.10;;;1.20;96.20;;;;;;5125496;27;27502;-54
2021/01/09 08:02:05;;;;;;;23.08;12.00;;;1.20;96.20;;;;;;5126127;27;27456;-52
2021/01/09 08:04:50;;;;;;;22.40;13.88;;;1.20;96.20;;;;;;5125784;27;27319;-54
2021/01/09 08:07:36;;;;;;;20.55;11.98;;;1.20;96.20;;;;;;5125132;27;27361;-54
2021/01/09 08:10:33;;;;;;;19.33;12.80;;;1.20;96.10;;;;;;5125187;27;27405;-54
2021/01/09 08:13:21;;;;;;;24.05;12.75;;;1.20;96.10;;;;;;5125981;27;27441;-51
2021/01/09 08:16:06;;;;;;;24.20;13.38;;;1.30;96.20;;;;;;5122508;27;27383;-54
2021/01/09 08:18:50;;;;;;;19.50;12.65;;;1.30;96.10;;;;;;5125794;27;27456;-55
2021/01/09 08:21:36;;;;;;;26.20;13.90;;;1.30;96.10;;;;;;5125698;27;27397;-54
2021/01/09 08:24:24;;;;;;;20.92;13.13;;;1.30;96.10;;;;;;5110436;27;27486;-53
2021/01/09 08:27:09;;;;;;;21.50;12.85;;;1.40;96.10;;;;;;5125694;27;27413;-55
2021/01/09 08:29:54;;;;;;;20.08;12.07;;;1.40;96.10;;;;;;5106557;27;27425;-53
2021/01/09 08:32:39;;;;;;;22.10;11.80;;;1.50;96.00;;;;;;5125319;27;27474;-54
2021/01/09 08:35:25;;;;;;;22.83;13.25;;;1.50;95.90;;;;;;5109563;27;27662;-53
2021/01/09 08:38:10;;;;;;;21.80;12.43;;;1.60;95.90;;;;;;5124773;27;27437;-54
2021/01/09 08:40:57;;;;;;;17.83;11.35;;;1.60;95.80;;;;;;5110122;27;27391;-55
2021/01/09 08:43:42;;;;;;;18.48;11.90;;;1.70;95.70;;;;;;5125211;27;27422;-55
2021/01/09 08:46:27;;;;;;;22.65;12.65;;;1.80;95.60;;;;;;5125452;27;27398;-54
2021/01/09 08:49:25;;;;;;;20.85;12.73;;;1.90;95.40;;;;;;5110174;27;27400;-54
2021/01/09 08:52:10;;;;;;;20.45;13.02;;;2.00;95.20;;;;;;5125182;27;27505;-57
2021/01/09 08:54:55;;;;;;;22.63;12.43;;;2.00;95.10;;;;;;5124390;27;27499;-57
2021/01/09 08:57:39;;;;;;;20.83;12.80;;;2.10;94.90;;;;;;5110100;27;27488;-57
2021/01/09 09:00:24;;;;;;;20.52;11.43;;;2.10;94.80;;;;;;5124153;27;27438;-57
2021/01/09 09:03:11;;;;;;;23.70;13.50;;;2.10;94.70;;;;;;5121585;27;27399;-58
2021/01/09 09:05:56;;;;;;;19.60;12.23;;;2.20;94.70;;;;;;5124100;27;27489;-58
2021/01/09 09:08:41;;;;;;;20.85;12.65;;;2.20;94.60;;;;;;5125208;27;27407;-56
2021/01/09 09:11:26;;;;;;;23.52;13.18;;;2.20;94.40;;;;;;5125104;27;27492;-57
2021/01/09 09:14:10;;;;;;;25.65;14.77;;;2.30;94.40;;;;;;5124739;27;27486;-57
2021/01/09 09:16:59;;;;;;;25.15;14.35;;;2.30;94.50;;;;;;5121688;27;27451;-47
2021/01/09 09:19:45;;;;;;;25.70;14.00;;;2.30;94.40;;;;;;5125070;27;27362;-56
2021/01/09 09:22:30;;;;;;;22.73;13.48;;;2.30;94.40;;;;;;5121759;27;27366;-57
2021/01/09 09:25:23;;;;;;;22.38;14.77;;;2.30;94.30;;;;;;5124654;27;27392;-57
2021/01/09 09:28:07;;;;;;;26.35;15.15;;;2.30;94.30;;;;;;5124577;27;27433;-56
2021/01/09 09:30:52;;;;;;;24.42;14.10;;;2.30;94.30;;;;;;5124626;27;27475;-55
2021/01/09 09:33:36;;;;;;;24.85;14.90;;;2.30;94.30;;;;;;5121138;27;27449;-56
2021/01/09 09:36:20;;;;;;;25.08;14.60;;;2.30;94.30;;;;;;5124383;27;27950;-56
2021/01/09 09:39:18;;;;;;;22.95;14.95;;;2.30;94.30;;;;;;5123669;27;27529;-56
2021/01/09 09:42:03;;;;;;;24.42;14.32;;;2.30;94.40;;;;;;5126039;27;27382;-53
2021/01/09 09:44:47;;;;;;;23.67;14.55;;;2.30;94.30;;;;;;5127856;27;26863;-55
2021/01/09 09:47:32;;;;;;;25.65;14.45;;;2.30;94.30;;;;;;5127988;27;27876;-55
2021/01/09 09:50:25;;;;;;;22.90;13.98;;;2.30;94.40;;;;;;5128242;27;27468;-56
2021/01/09 09:53:10;;;;;;;23.80;15.13;;;2.40;94.50;;;;;;5127970;27;27422;-56
2021/01/09 09:56:10;;;;;;;25.23;15.95;;;2.40;94.40;;;;;;5128213;27;27524;-55
2021/01/09 09:59:08;;;;;;;23.27;14.32;;;2.40;94.50;;;;;;5127818;27;27323;-53
2021/01/09 10:02:00;;;;;;;26.70;14.13;;;2.50;94.40;;;;;;5127992;27;27430;-54
2021/01/09 10:04:44;;;;;;;24.42;15.10;;;2.50;94.20;;;;;;5127787;27;27336;-54
2021/01/09 10:07:29;;;;;;;24.60;15.68;;;2.60;94.10;;;;;;5128080;27;27382;-55
2021/01/09 10:10:20;;;;;;;21.83;14.30;;;2.60;93.90;;;;;;5127800;27;27397;-55
2021/01/09 10:13:05;;;;;;;27.25;15.20;;;2.70;94.00;;;;;;5127870;27;27476;-55
2021/01/09 10:15:49;;;;;;;21.48;14.15;;;2.70;94.00;;;;;;5127624;27;27417;-54
2021/01/09 10:18:35;;;;;;;25.98;14.93;;;2.80;94.20;;;;;;5127834;27;27399;-53
2021/01/09 10:21:20;;;;;;;24.67;14.27;;;2.80;94.10;;;;;;5127735;27;27464;-54
2021/01/09 10:24:05;;;;;;;26.00;14.90;;;2.80;94.10;;;;;;5127274;27;27515;-54
2021/01/09 10:26:50;;;;;;;28.45;16.23;;;2.80;94.10;;;;;;5127718;27;27548;-52
2021/01/09 10:29:34;;;;;;;27.85;16.70;;;2.90;93.90;;;;;;5124362;27;27440;-54
2021/01/09 10:32:19;;;;;;;24.15;15.35;;;3.00;93.80;;;;;;5127566;27;27851;-54
2021/01/09 10:35:04;;;;;;;29.90;14.82;;;3.00;93.70;;;;;;5127520;27;27465;-52
2021/01/09 10:37:48;;;;;;;24.77;16.30;;;3.10;93.70;;;;;;5124226;27;27535;-51
2021/01/09 10:40:32;;;;;;;28.42;14.73;;;3.10;93.50;;;;;;5127132;27;27592;-54
2021/01/09 10:43:17;;;;;;;24.15;14.52;;;3.10;93.40;;;;;;5127227;27;27891;-54
2021/01/09 10:46:01;;;;;;;21.85;13.90;;;3.20;93.20;;;;;;5127293;27;27487;-50
2021/01/09 10:48:46;;;;;;;25.33;14.20;;;3.20;93.10;;;;;;5127038;27;27374;-51
2021/01/09 10:51:31;;;;;;;21.25;14.05;;;3.30;92.90;;;;;;5127247;27;27365;-54
2021/01/09 10:54:15;;;;;;;22.50;13.70;;;3.30;92.80;;;;;;5126153;27;27956;-53
2021/01/09 10:57:00;;;;;;;23.38;14.40;;;3.40;92.60;;;;;;5126342;27;27565;-54
2021/01/09 10:59:44;;;;;;;23.58;14.98;;;3.50;92.40;;;;;;5127168;27;27328;-53
2021/01/09 11:02:29;;;;;;;19.20;12.68;;;3.60;92.20;;;;;;5126804;27;27361;-51
2021/01/09 11:05:13;;;;;;;20.52;13.57;;;3.70;92.00;;;;;;5126733;27;27867;-53
2021/01/09 11:07:58;;;;;;;20.45;12.40;;;3.70;91.80;;;;;;5126737;27;27405;-52
2021/01/09 11:10:42;;;;;;;18.55;12.52;;;3.80;91.70;;;;;;5126756;27;27465;-54
2021/01/09 11:13:27;;;;;;;21.83;13.18;;;3.90;91.50;;;;;;5126896;27;27452;-51
2021/01/09 11:16:11;;;;;;;19.35;12.18;;;4.00;91.40;;;;;;5126802;27;27865;-53
2021/01/09 11:18:56;;;;;;;19.95;12.43;;;4.10;91.10;;;;;;5125972;27;27528;-51
2021/01/09 11:21:40;;;;;;;20.40;13.18;;;4.20;90.90;;;;;;5126473;27;27473;-54
2021/01/09 11:24:24;;;;;;;22.55;12.55;;;4.30;90.50;;;;;;5124959;27;27469;-54
2021/01/09 11:27:09;;;;;;;19.92;13.48;;;4.50;90.40;;;;;;5126633;27;27469;-51
2021/01/09 11:29:53;;;;;;;20.83;12.20;;;4.60;90.20;;;;;;5126228;27;27413;-51
2021/01/09 11:32:38;;;;;;;21.25;12.00;;;4.60;89.90;;;;;;5126495;27;27418;-53
2021/01/09 11:35:22;;;;;;;20.58;11.85;;;4.70;89.60;;;;;;5126221;27;27397;-51
2021/01/09 11:38:06;;;;;;;19.58;11.10;;;4.90;89.00;;;;;;5125800;27;27902;-51
2021/01/09 11:40:51;;;;;;;17.40;11.23;;;5.10;88.60;;;;;;5123084;27;27409;-54
2021/01/09 11:43:39;;;;;;;16.92;11.48;;;5.20;88.00;;;;;;5126263;27;27331;-53
2021/01/09 11:46:27;;;;;;;19.73;12.75;;;5.20;87.50;;;;;;5126397;27;27472;-54
2021/01/09 11:49:12;;;;;;;18.35;11.70;;;5.10;87.40;;;;;;5125981;27;27409;-53
2021/01/09 11:52:03;;;;;;;18.70;12.23;;;5.00;87.30;;;;;;5125974;27;27471;-54
2021/01/09 11:54:48;;;;;;;18.27;11.65;;;4.90;88.00;;;;;;5126251;27;27557;-55
2021/01/09 11:57:33;;;;;;;21.42;12.05;;;4.70;88.00;;;;;;5125991;27;27418;-54
2021/01/09 12:00:20;;;;;;;20.15;11.68;;;4.60;88.80;;;;;;5126108;27;27515;-50
2021/01/09 12:03:04;;;;;;;19.10;12.10;;;4.40;89.50;;;;;;5126001;27;27490;-55
2021/01/09 12:05:49;;;;;;;18.65;12.02;;;4.40;89.90;;;;;;5124787;27;27489;-56
2021/01/09 12:08:34;;;;;;;18.92;11.50;;;4.30;90.20;;;;;;5125795;27;27438;-54
2021/01/09 12:11:21;;;;;;;22.02;12.95;;;4.40;90.30;;;;;;5125690;27;27579;-53
2021/01/09 12:14:06;;;;;;;20.70;11.85;;;4.40;90.20;;;;;;5125927;27;27500;-54
2021/01/09 12:16:51;;;;;;;19.83;12.00;;;4.60;90.20;;;;;;5125988;27;27464;-51
2021/01/09 12:19:36;;;;;;;19.38;11.15;;;4.70;89.90;;;;;;5122563;27;26841;-51
2021/01/09 12:22:20;;;;;;;22.05;12.15;;;4.80;89.50;;;;;;5125533;27;27930;-49
2021/01/09 12:25:05;;;;;;;18.55;11.48;;;5.00;88.80;;;;;;5125461;27;27449;-50
2021/01/09 12:27:50;;;;;;;17.40;10.60;;;5.10;88.00;;;;;;5125728;27;27420;-51
2021/01/09 12:30:35;;;;;;;18.20;11.13;;;5.20;87.50;;;;;;5125411;27;27402;-52
2021/01/09 12:33:19;;;;;;;16.73;10.48;;;5.20;87.50;;;;;;5125582;27;27851;-52
2021/01/09 12:36:05;;;;;;;17.38;10.52;;;5.30;87.00;;;;;;5125600;27;27406;-55
2021/01/09 12:38:49;;;;;;;14.55;10.20;;;5.30;86.90;;;;;;5124440;27;27467;-50
2021/01/09 12:41:38;;;;;;;16.10;10.02;;;5.30;86.60;;;;;;5124530;27;27471;-52
2021/01/09 12:44:23;;;;;;;17.67;9.63;;;5.30;86.60;;;;;;5125073;27;27414;-50
2021/01/09 12:47:08;;;;;;;14.05;9.60;;;5.30;86.50;;;;;;5124795;27;27386;-50
2021/01/09 12:49:53;;;;;;;13.57;8.73;;;5.30;86.10;;;;;;5125492;27;27343;-50
2021/01/09 12:52:37;;;;;;;16.27;9.65;;;5.30;86.20;;;;;;5125442;27;27343;-51
2021/01/09 12:55:22;;;;;;;13.77;9.20;;;5.30;85.70;;;;;;5125338;27;27492;-50
2021/01/09 12:58:07;;;;;;;17.10;9.40;;;5.30;85.30;;;;;;5125035;27;27455;-52
2021/01/09 13:00:51;;;;;;;15.38;9.23;;;5.20;84.90;;;;;;5125429;27;27418;-52
2021/01/09 13:03:35;;;;;;;13.13;8.50;;;5.30;85.00;;;;;;5125168;27;27418;-51
2021/01/09 13:06:20;;;;;;;13.35;8.90;;;5.30;84.90;;;;;;5124943;27;27851;-53
2021/01/09 13:09:05;;;;;;;13.98;8.57;;;5.20;85.10;;;;;;5125148;27;27468;-54
2021/01/09 13:11:51;;;;;;;12.32;7.53;;;5.10;85.10;;;;;;5124952;27;27517;-55
2021/01/09 13:14:36;;;;;;;14.65;8.02;;;5.10;85.40;;;;;;5121807;27;27436;-54
2021/01/09 13:17:21;;;;;;;18.25;8.38;;;5.00;85.80;;;;;;5126767;27;27480;-55
2021/01/09 13:20:06;;;;;;;13.43;8.73;;;5.00;86.20;;;;;;5128414;27;27456;-54
2021/01/09 13:22:50;;;;;;;11.10;7.70;;;5.10;86.50;;;;;;5125503;27;27445;-56
2021/01/09 13:25:35;;;;;;;14.05;8.50;;;5.20;86.30;;;;;;5128339;27;27476;-56
2021/01/09 13:28:20;;;;;;;12.13;8.00;;;5.20;86.10;;;;;;5127645;27;27468;-55
2021/01/09 13:31:04;;;;;;;13.80;8.52;;;5.30;86.00;;;;;;5127825;27;27442;-54
2021/01/09 13:33:49;;;;;;;14.48;9.27;;;5.30;85.90;;;;;;5128635;27;27389;-55
2021/01/09 13:36:34;;;;;;;14.43;9.25;;;5.30;85.50;;;;;;5128202;27;27480;-47
2021/01/09 13:39:19;;;;;;;13.95;8.27;;;5.30;85.50;;;;;;5124790;27;27382;-47
2021/01/09 13:42:04;;;;;;;14.73;8.77;;;5.30;85.60;;;;;;5128086;27;27398;-53
2021/01/09 13:44:49;;;;;;;14.48;9.40;;;5.30;85.60;;;;;;5124907;27;27518;-55
2021/01/09 13:47:34;;;;;;;16.08;8.93;;;5.20;85.30;;;;;;5128269;27;27438;-54
2021/01/09 13:50:18;;;;;;;12.98;8.00;;;5.20;85.20;;;;;;5128235;27;27505;-55
2021/01/09 13:53:03;;;;;;;14.80;8.93;;;5.20;85.40;;;;;;5128149;27;27438;-55
2021/01/09 13:55:48;;;;;;;13.75;8.75;;;5.10;85.80;;;;;;5127987;27;27450;-57
2021/01/09 13:58:33;;;;;;;15.20;9.82;;;5.10;85.90;;;;;;5128130;27;27389;-53
2021/01/09 14:01:21;;;;;;;14.02;8.95;;;5.00;85.90;;;;;;5127800;27;27879;-55
2021/01/09 14:04:06;;;;;;;17.75;9.77;;;5.00;85.90;;;;;;5127620;27;27409;-58
2021/01/09 14:06:50;;;;;;;12.90;8.25;;;4.90;85.90;;;;;;5127411;27;27407;-54
2021/01/09 14:09:35;;;;;;;12.50;8.60;;;4.80;86.40;;;;;;5127957;27;27464;-48
2021/01/09 14:12:19;;;;;;;14.70;8.25;;;4.70;86.70;;;;;;5127869;27;27474;-57
2021/01/09 14:15:05;;;;;;;15.68;8.40;;;4.60;87.10;;;;;;5127091;27;27468;-57